sensor_id;sensor_type;location;lat;lon;timestamp;P1;durP1;ratioP1;P2;durP2;ratioP2
31694;SDS011;18289;51.330;4.946;2023-12-28T00:01:35;2.92;;;2.63;;
31694;SDS011;18289;51.330;4.946;2023-12-28T00:04:01;2.75;;;2.55;;
31694;SDS011;18289;51.330;4.946;2023-12-28T00:06:27;4.00;;;2.90;;
31694;SDS011;18289;51.330;4.946;2023-12-28T00:08:53;2.72;;;2.53;;
31694;SDS011;18289;51.330;4.946;2023-12-28T00:11:18;3.20;;;2.90;;
31694;SDS011;18289;51.330;4.946;2023-12-28T00:13:45;3.50;;;3.20;;
31694;SDS011;18289;51.330;4.946;2023-12-28T00:16:11;4.22;;;2.70;;
31694;SDS011;18289;51.330;4.946;2023-12-28T00:18:37;3.97;;;2.60;;
31694;SDS011;18289;51.330;4.946;2023-12-28T00:21:02;3.35;;;2.60;;
31694;SDS011;18289;51.330;4.946;2023-12-28T00:23:28;2.90;;;2.70;;
31694;SDS011;18289;51.330;4.946;2023-12-28T00:26:00;4.85;;;2.50;;
31694;SDS011;18289;51.330;4.946;2023-12-28T00:28:25;3.15;;;2.70;;
31694;SDS011;18289;51.330;4.946;2023-12-28T00:30:51;3.40;;;2.70;;
31694;SDS011;18289;51.330;4.946;2023-12-28T00:33:17;4.70;;;3.03;;
31694;SDS011;18289;51.330;4.946;2023-12-28T00:35:42;4.20;;;3.05;;
31694;SDS011;18289;51.330;4.946;2023-12-28T00:38:08;3.45;;;2.60;;
31694;SDS011;18289;51.330;4.946;2023-12-28T00:40:34;3.17;;;2.85;;
31694;SDS011;18289;51.330;4.946;2023-12-28T00:42:59;5.07;;;2.90;;
31694;SDS011;18289;51.330;4.946;2023-12-28T00:45:25;3.30;;;3.00;;
31694;SDS011;18289;51.330;4.946;2023-12-28T00:47:51;4.13;;;3.47;;
31694;SDS011;18289;51.330;4.946;2023-12-28T00:50:17;2.92;;;2.70;;
31694;SDS011;18289;51.330;4.946;2023-12-28T00:52:42;5.10;;;2.70;;
31694;SDS011;18289;51.330;4.946;2023-12-28T00:55:08;3.00;;;2.67;;
31694;SDS011;18289;51.330;4.946;2023-12-28T00:57:35;3.67;;;2.90;;
31694;SDS011;18289;51.330;4.946;2023-12-28T01:00:01;4.78;;;2.70;;
31694;SDS011;18289;51.330;4.946;2023-12-28T01:02:27;2.88;;;2.47;;
31694;SDS011;18289;51.330;4.946;2023-12-28T01:04:52;4.63;;;2.65;;
31694;SDS011;18289;51.330;4.946;2023-12-28T01:07:18;2.80;;;2.60;;
31694;SDS011;18289;51.330;4.946;2023-12-28T01:09:47;3.35;;;3.05;;
31694;SDS011;18289;51.330;4.946;2023-12-28T01:12:12;3.92;;;2.70;;
31694;SDS011;18289;51.330;4.946;2023-12-28T01:14:38;3.72;;;2.80;;
31694;SDS011;18289;51.330;4.946;2023-12-28T01:17:04;3.65;;;2.78;;
31694;SDS011;18289;51.330;4.946;2023-12-28T01:19:29;5.50;;;2.72;;
31694;SDS011;18289;51.330;4.946;2023-12-28T01:21:55;2.50;;;2.33;;
31694;SDS011;18289;51.330;4.946;2023-12-28T01:24:21;3.13;;;2.63;;
31694;SDS011;18289;51.330;4.946;2023-12-28T01:26:49;5.45;;;2.67;;
31694;SDS011;18289;51.330;4.946;2023-12-28T01:29:15;3.15;;;2.70;;
31694;SDS011;18289;51.330;4.946;2023-12-28T01:31:40;3.97;;;2.70;;
31694;SDS011;18289;51.330;4.946;2023-12-28T01:34:06;3.45;;;2.53;;
31694;SDS011;18289;51.330;4.946;2023-12-28T01:36:34;6.75;;;2.58;;
31694;SDS011;18289;51.330;4.946;2023-12-28T01:39:00;6.70;;;2.60;;
31694;SDS011;18289;51.330;4.946;2023-12-28T01:41:25;5.82;;;2.67;;
31694;SDS011;18289;51.330;4.946;2023-12-28T01:43:51;2.97;;;2.30;;
31694;SDS011;18289;51.330;4.946;2023-12-28T01:46:17;2.85;;;2.40;;
31694;SDS011;18289;51.330;4.946;2023-12-28T01:48:45;2.90;;;2.63;;
31694;SDS011;18289;51.330;4.946;2023-12-28T01:51:15;3.90;;;2.50;;
31694;SDS011;18289;51.330;4.946;2023-12-28T01:53:45;4.85;;;2.50;;
31694;SDS011;18289;51.330;4.946;2023-12-28T01:56:13;4.60;;;2.63;;
31694;SDS011;18289;51.330;4.946;2023-12-28T01:58:40;3.70;;;2.90;;
31694;SDS011;18289;51.330;4.946;2023-12-28T02:01:12;5.65;;;2.60;;
31694;SDS011;18289;51.330;4.946;2023-12-28T02:03:38;4.50;;;2.67;;
31694;SDS011;18289;51.330;4.946;2023-12-28T02:08:36;4.68;;;2.33;;
31694;SDS011;18289;51.330;4.946;2023-12-28T02:11:05;2.78;;;2.38;;
31694;SDS011;18289;51.330;4.946;2023-12-28T02:13:30;4.63;;;2.38;;
31694;SDS011;18289;51.330;4.946;2023-12-28T02:16:01;5.18;;;2.63;;
31694;SDS011;18289;51.330;4.946;2023-12-28T02:18:33;3.53;;;2.28;;
31694;SDS011;18289;51.330;4.946;2023-12-28T02:21:03;3.50;;;2.60;;
31694;SDS011;18289;51.330;4.946;2023-12-28T02:23:32;3.05;;;2.50;;
31694;SDS011;18289;51.330;4.946;2023-12-28T02:25:58;3.47;;;2.33;;
31694;SDS011;18289;51.330;4.946;2023-12-28T02:28:26;4.45;;;2.75;;
31694;SDS011;18289;51.330;4.946;2023-12-28T02:30:54;7.13;;;2.65;;
31694;SDS011;18289;51.330;4.946;2023-12-28T02:36:01;2.97;;;2.43;;
31694;SDS011;18289;51.330;4.946;2023-12-28T02:38:30;3.45;;;2.45;;
31694;SDS011;18289;51.330;4.946;2023-12-28T02:41:03;5.20;;;2.50;;
31694;SDS011;18289;51.330;4.946;2023-12-28T02:43:29;5.43;;;2.38;;
31694;SDS011;18289;51.330;4.946;2023-12-28T02:45:57;2.95;;;2.40;;
31694;SDS011;18289;51.330;4.946;2023-12-28T02:48:22;3.85;;;2.63;;
31694;SDS011;18289;51.330;4.946;2023-12-28T02:50:48;2.33;;;2.13;;
31694;SDS011;18289;51.330;4.946;2023-12-28T02:53:14;3.85;;;2.75;;
31694;SDS011;18289;51.330;4.946;2023-12-28T02:55:39;4.32;;;2.60;;
31694;SDS011;18289;51.330;4.946;2023-12-28T02:58:05;5.20;;;2.67;;
31694;SDS011;18289;51.330;4.946;2023-12-28T03:00:33;5.28;;;2.33;;
31694;SDS011;18289;51.330;4.946;2023-12-28T03:02:59;4.93;;;2.67;;
31694;SDS011;18289;51.330;4.946;2023-12-28T03:05:25;6.10;;;2.58;;
31694;SDS011;18289;51.330;4.946;2023-12-28T03:07:50;5.13;;;2.50;;
31694;SDS011;18289;51.330;4.946;2023-12-28T03:10:16;3.97;;;2.50;;
31694;SDS011;18289;51.330;4.946;2023-12-28T03:12:42;2.80;;;2.38;;
31694;SDS011;18289;51.330;4.946;2023-12-28T03:15:08;4.22;;;2.33;;
31694;SDS011;18289;51.330;4.946;2023-12-28T03:17:34;3.03;;;2.30;;
31694;SDS011;18289;51.330;4.946;2023-12-28T03:20:01;5.28;;;2.92;;
31694;SDS011;18289;51.330;4.946;2023-12-28T03:22:27;3.83;;;2.30;;
31694;SDS011;18289;51.330;4.946;2023-12-28T03:24:53;3.55;;;2.38;;
31694;SDS011;18289;51.330;4.946;2023-12-28T03:29:49;3.35;;;2.58;;
31694;SDS011;18289;51.330;4.946;2023-12-28T03:32:15;6.20;;;2.28;;
31694;SDS011;18289;51.330;4.946;2023-12-28T03:34:41;9.73;;;3.40;;
31694;SDS011;18289;51.330;4.946;2023-12-28T03:37:06;5.28;;;2.08;;
31694;SDS011;18289;51.330;4.946;2023-12-28T03:39:32;3.05;;;1.85;;
31694;SDS011;18289;51.330;4.946;2023-12-28T03:41:59;4.40;;;2.45;;
31694;SDS011;18289;51.330;4.946;2023-12-28T03:44:24;5.90;;;2.75;;
31694;SDS011;18289;51.330;4.946;2023-12-28T03:46:50;3.70;;;2.20;;
31694;SDS011;18289;51.330;4.946;2023-12-28T03:49:16;4.93;;;2.05;;
31694;SDS011;18289;51.330;4.946;2023-12-28T03:51:43;5.13;;;2.13;;
31694;SDS011;18289;51.330;4.946;2023-12-28T03:54:08;6.18;;;2.47;;
31694;SDS011;18289;51.330;4.946;2023-12-28T03:56:34;7.88;;;2.78;;
31694;SDS011;18289;51.330;4.946;2023-12-28T03:59:03;4.82;;;2.28;;
31694;SDS011;18289;51.330;4.946;2023-12-28T04:01:28;5.45;;;2.58;;
31694;SDS011;18289;51.330;4.946;2023-12-28T04:03:55;4.15;;;2.17;;
31694;SDS011;18289;51.330;4.946;2023-12-28T04:06:20;5.32;;;2.40;;
31694;SDS011;18289;51.330;4.946;2023-12-28T04:08:46;14.07;;;3.92;;
31694;SDS011;18289;51.330;4.946;2023-12-28T04:11:12;5.38;;;2.30;;
31694;SDS011;18289;51.330;4.946;2023-12-28T04:13:37;4.03;;;2.58;;
31694;SDS011;18289;51.330;4.946;2023-12-28T04:16:04;6.25;;;2.88;;
31694;SDS011;18289;51.330;4.946;2023-12-28T04:18:30;6.43;;;2.67;;
31694;SDS011;18289;51.330;4.946;2023-12-28T04:20:55;6.07;;;2.33;;
31694;SDS011;18289;51.330;4.946;2023-12-28T04:23:21;5.43;;;2.05;;
31694;SDS011;18289;51.330;4.946;2023-12-28T04:25:47;7.65;;;3.17;;
31694;SDS011;18289;51.330;4.946;2023-12-28T04:28:12;5.47;;;2.22;;
31694;SDS011;18289;51.330;4.946;2023-12-28T04:30:38;5.60;;;2.40;;
31694;SDS011;18289;51.330;4.946;2023-12-28T04:33:04;5.43;;;2.05;;
31694;SDS011;18289;51.330;4.946;2023-12-28T04:35:30;9.93;;;2.72;;
31694;SDS011;18289;51.330;4.946;2023-12-28T04:37:55;5.95;;;2.67;;
31694;SDS011;18289;51.330;4.946;2023-12-28T04:40:21;7.45;;;2.53;;
31694;SDS011;18289;51.330;4.946;2023-12-28T04:42:47;5.65;;;2.25;;
31694;SDS011;18289;51.330;4.946;2023-12-28T04:45:13;7.50;;;2.55;;
31694;SDS011;18289;51.330;4.946;2023-12-28T04:47:38;4.43;;;2.15;;
31694;SDS011;18289;51.330;4.946;2023-12-28T04:50:05;11.65;;;2.28;;
31694;SDS011;18289;51.330;4.946;2023-12-28T04:52:32;7.65;;;2.55;;
31694;SDS011;18289;51.330;4.946;2023-12-28T04:54:57;4.68;;;2.20;;
31694;SDS011;18289;51.330;4.946;2023-12-28T04:57:23;7.70;;;2.92;;
31694;SDS011;18289;51.330;4.946;2023-12-28T04:59:50;4.32;;;2.00;;
31694;SDS011;18289;51.330;4.946;2023-12-28T05:02:17;8.20;;;2.30;;
31694;SDS011;18289;51.330;4.946;2023-12-28T05:04:42;6.18;;;2.10;;
31694;SDS011;18289;51.330;4.946;2023-12-28T05:07:08;8.00;;;2.78;;
31694;SDS011;18289;51.330;4.946;2023-12-28T05:09:34;7.20;;;2.20;;
31694;SDS011;18289;51.330;4.946;2023-12-28T05:12:00;7.35;;;2.45;;
31694;SDS011;18289;51.330;4.946;2023-12-28T05:14:29;9.20;;;2.17;;
31694;SDS011;18289;51.330;4.946;2023-12-28T05:16:54;6.15;;;1.98;;
31694;SDS011;18289;51.330;4.946;2023-12-28T05:19:20;7.22;;;2.80;;
31694;SDS011;18289;51.330;4.946;2023-12-28T05:21:46;6.65;;;2.05;;
31694;SDS011;18289;51.330;4.946;2023-12-28T05:24:12;5.85;;;2.17;;
31694;SDS011;18289;51.330;4.946;2023-12-28T05:26:40;4.60;;;2.20;;
31694;SDS011;18289;51.330;4.946;2023-12-28T05:29:06;12.85;;;3.95;;
31694;SDS011;18289;51.330;4.946;2023-12-28T05:31:32;7.25;;;2.35;;
31694;SDS011;18289;51.330;4.946;2023-12-28T05:33:57;5.82;;;2.47;;
31694;SDS011;18289;51.330;4.946;2023-12-28T05:36:23;7.53;;;2.30;;
31694;SDS011;18289;51.330;4.946;2023-12-28T05:38:49;7.47;;;2.47;;
31694;SDS011;18289;51.330;4.946;2023-12-28T05:41:15;7.15;;;2.33;;
31694;SDS011;18289;51.330;4.946;2023-12-28T05:43:41;10.07;;;2.50;;
31694;SDS011;18289;51.330;4.946;2023-12-28T05:46:07;7.60;;;2.63;;
31694;SDS011;18289;51.330;4.946;2023-12-28T05:48:32;7.95;;;2.50;;
31694;SDS011;18289;51.330;4.946;2023-12-28T05:50:58;7.75;;;2.60;;
31694;SDS011;18289;51.330;4.946;2023-12-28T05:53:24;6.15;;;2.33;;
31694;SDS011;18289;51.330;4.946;2023-12-28T05:55:51;4.43;;;1.92;;
31694;SDS011;18289;51.330;4.946;2023-12-28T05:58:17;7.95;;;2.30;;
31694;SDS011;18289;51.330;4.946;2023-12-28T06:00:43;9.57;;;2.83;;
31694;SDS011;18289;51.330;4.946;2023-12-28T06:03:11;7.43;;;2.63;;
31694;SDS011;18289;51.330;4.946;2023-12-28T06:05:37;8.10;;;2.55;;
31694;SDS011;18289;51.330;4.946;2023-12-28T06:08:03;10.05;;;2.95;;
31694;SDS011;18289;51.330;4.946;2023-12-28T06:10:29;8.57;;;2.20;;
31694;SDS011;18289;51.330;4.946;2023-12-28T06:12:55;5.68;;;2.03;;
31694;SDS011;18289;51.330;4.946;2023-12-28T06:15:20;8.82;;;2.50;;
31694;SDS011;18289;51.330;4.946;2023-12-28T06:17:46;12.32;;;2.50;;
31694;SDS011;18289;51.330;4.946;2023-12-28T06:20:12;11.23;;;2.88;;
31694;SDS011;18289;51.330;4.946;2023-12-28T06:22:38;10.45;;;4.13;;
31694;SDS011;18289;51.330;4.946;2023-12-28T06:25:04;7.53;;;2.40;;
31694;SDS011;18289;51.330;4.946;2023-12-28T06:27:33;9.55;;;2.40;;
31694;SDS011;18289;51.330;4.946;2023-12-28T06:29:58;12.45;;;3.75;;
31694;SDS011;18289;51.330;4.946;2023-12-28T06:32:24;11.77;;;2.42;;
31694;SDS011;18289;51.330;4.946;2023-12-28T06:34:50;9.07;;;2.70;;
31694;SDS011;18289;51.330;4.946;2023-12-28T06:37:16;11.10;;;3.60;;
31694;SDS011;18289;51.330;4.946;2023-12-28T06:39:41;9.48;;;3.20;;
31694;SDS011;18289;51.330;4.946;2023-12-28T06:44:38;12.40;;;3.00;;
31694;SDS011;18289;51.330;4.946;2023-12-28T06:47:03;13.27;;;3.05;;
31694;SDS011;18289;51.330;4.946;2023-12-28T06:49:29;10.70;;;2.50;;
31694;SDS011;18289;51.330;4.946;2023-12-28T06:51:55;9.10;;;2.40;;
31694;SDS011;18289;51.330;4.946;2023-12-28T06:54:21;9.50;;;2.55;;
31694;SDS011;18289;51.330;4.946;2023-12-28T06:56:47;9.32;;;3.28;;
31694;SDS011;18289;51.330;4.946;2023-12-28T06:59:12;8.88;;;2.67;;
31694;SDS011;18289;51.330;4.946;2023-12-28T07:01:40;11.82;;;2.63;;
31694;SDS011;18289;51.330;4.946;2023-12-28T07:04:06;7.65;;;2.92;;
31694;SDS011;18289;51.330;4.946;2023-12-28T07:06:32;9.40;;;2.90;;
31694;SDS011;18289;51.330;4.946;2023-12-28T07:08:58;6.85;;;2.60;;
31694;SDS011;18289;51.330;4.946;2023-12-28T07:11:24;6.88;;;2.22;;
31694;SDS011;18289;51.330;4.946;2023-12-28T07:13:51;16.90;;;2.95;;
31694;SDS011;18289;51.330;4.946;2023-12-28T07:16:17;7.88;;;2.38;;
31694;SDS011;18289;51.330;4.946;2023-12-28T07:18:43;11.38;;;2.45;;
31694;SDS011;18289;51.330;4.946;2023-12-28T07:21:08;11.20;;;3.67;;
31694;SDS011;18289;51.330;4.946;2023-12-28T07:23:35;9.50;;;2.22;;
31694;SDS011;18289;51.330;4.946;2023-12-28T07:26:01;16.73;;;3.38;;
31694;SDS011;18289;51.330;4.946;2023-12-28T07:28:30;10.90;;;2.80;;
31694;SDS011;18289;51.330;4.946;2023-12-28T07:30:56;9.82;;;3.17;;
31694;SDS011;18289;51.330;4.946;2023-12-28T07:33:22;12.43;;;2.28;;
31694;SDS011;18289;51.330;4.946;2023-12-28T07:35:47;17.83;;;2.78;;
31694;SDS011;18289;51.330;4.946;2023-12-28T07:38:13;9.23;;;2.75;;
31694;SDS011;18289;51.330;4.946;2023-12-28T07:40:40;9.43;;;2.83;;
31694;SDS011;18289;51.330;4.946;2023-12-28T07:43:06;9.93;;;3.00;;
31694;SDS011;18289;51.330;4.946;2023-12-28T07:45:31;9.18;;;2.42;;
31694;SDS011;18289;51.330;4.946;2023-12-28T07:48:01;12.23;;;3.20;;
31694;SDS011;18289;51.330;4.946;2023-12-28T07:50:26;13.57;;;2.83;;
31694;SDS011;18289;51.330;4.946;2023-12-28T07:55:20;9.95;;;2.70;;
31694;SDS011;18289;51.330;4.946;2023-12-28T07:57:49;14.15;;;2.78;;
31694;SDS011;18289;51.330;4.946;2023-12-28T08:00:15;8.43;;;2.65;;
31694;SDS011;18289;51.330;4.946;2023-12-28T08:02:40;8.18;;;2.70;;
31694;SDS011;18289;51.330;4.946;2023-12-28T08:05:06;8.98;;;2.70;;
31694;SDS011;18289;51.330;4.946;2023-12-28T08:07:32;13.20;;;3.10;;
31694;SDS011;18289;51.330;4.946;2023-12-28T08:09:58;13.80;;;2.85;;
31694;SDS011;18289;51.330;4.946;2023-12-28T08:12:24;11.23;;;2.95;;
31694;SDS011;18289;51.330;4.946;2023-12-28T08:14:52;9.30;;;2.55;;
31694;SDS011;18289;51.330;4.946;2023-12-28T08:17:19;8.30;;;2.72;;
31694;SDS011;18289;51.330;4.946;2023-12-28T08:19:44;7.22;;;2.60;;
31694;SDS011;18289;51.330;4.946;2023-12-28T08:22:12;8.85;;;3.17;;
31694;SDS011;18289;51.330;4.946;2023-12-28T08:24:38;9.23;;;2.88;;
31694;SDS011;18289;51.330;4.946;2023-12-28T08:27:04;13.60;;;2.97;;
31694;SDS011;18289;51.330;4.946;2023-12-28T08:29:32;16.60;;;2.90;;
31694;SDS011;18289;51.330;4.946;2023-12-28T08:31:58;16.40;;;3.22;;
31694;SDS011;18289;51.330;4.946;2023-12-28T08:34:24;10.52;;;3.80;;
31694;SDS011;18289;51.330;4.946;2023-12-28T08:36:50;14.18;;;3.40;;
31694;SDS011;18289;51.330;4.946;2023-12-28T08:39:17;14.07;;;3.35;;
31694;SDS011;18289;51.330;4.946;2023-12-28T08:41:43;9.85;;;2.35;;
31694;SDS011;18289;51.330;4.946;2023-12-28T08:44:14;12.48;;;2.47;;
31694;SDS011;18289;51.330;4.946;2023-12-28T08:46:42;10.00;;;2.50;;
31694;SDS011;18289;51.330;4.946;2023-12-28T08:49:15;13.65;;;3.30;;
31694;SDS011;18289;51.330;4.946;2023-12-28T08:51:41;9.02;;;2.70;;
31694;SDS011;18289;51.330;4.946;2023-12-28T08:54:07;15.32;;;2.78;;
31694;SDS011;18289;51.330;4.946;2023-12-28T08:56:35;11.43;;;2.50;;
31694;SDS011;18289;51.330;4.946;2023-12-28T08:59:01;10.55;;;2.60;;
31694;SDS011;18289;51.330;4.946;2023-12-28T09:01:33;10.35;;;2.60;;
31694;SDS011;18289;51.330;4.946;2023-12-28T09:04:05;9.50;;;2.35;;
31694;SDS011;18289;51.330;4.946;2023-12-28T09:06:36;9.45;;;3.03;;
31694;SDS011;18289;51.330;4.946;2023-12-28T09:09:07;10.18;;;3.70;;
31694;SDS011;18289;51.330;4.946;2023-12-28T09:11:34;16.65;;;3.67;;
31694;SDS011;18289;51.330;4.946;2023-12-28T09:13:59;8.38;;;3.00;;
31694;SDS011;18289;51.330;4.946;2023-12-28T09:16:25;12.95;;;3.22;;
31694;SDS011;18289;51.330;4.946;2023-12-28T09:18:51;13.48;;;3.03;;
31694;SDS011;18289;51.330;4.946;2023-12-28T09:21:16;17.45;;;3.22;;
31694;SDS011;18289;51.330;4.946;2023-12-28T09:23:42;14.00;;;4.05;;
31694;SDS011;18289;51.330;4.946;2023-12-28T09:26:11;12.32;;;3.15;;
31694;SDS011;18289;51.330;4.946;2023-12-28T09:28:39;29.77;;;4.72;;
31694;SDS011;18289;51.330;4.946;2023-12-28T09:31:05;9.05;;;2.38;;
31694;SDS011;18289;51.330;4.946;2023-12-28T09:33:32;12.30;;;3.35;;
31694;SDS011;18289;51.330;4.946;2023-12-28T09:36:04;16.15;;;4.10;;
31694;SDS011;18289;51.330;4.946;2023-12-28T09:38:30;12.38;;;3.67;;
31694;SDS011;18289;51.330;4.946;2023-12-28T09:40:56;9.82;;;2.47;;
31694;SDS011;18289;51.330;4.946;2023-12-28T09:43:40;7.57;;;2.60;;
31694;SDS011;18289;51.330;4.946;2023-12-28T09:46:25;14.70;;;4.15;;
31694;SDS011;18289;51.330;4.946;2023-12-28T09:48:56;10.55;;;3.15;;
31694;SDS011;18289;51.330;4.946;2023-12-28T09:51:28;12.35;;;2.60;;
31694;SDS011;18289;51.330;4.946;2023-12-28T09:53:55;13.25;;;3.78;;
31694;SDS011;18289;51.330;4.946;2023-12-28T09:56:31;17.30;;;4.03;;
31694;SDS011;18289;51.330;4.946;2023-12-28T09:59:07;12.50;;;2.80;;
31694;SDS011;18289;51.330;4.946;2023-12-28T10:01:48;15.75;;;3.53;;
31694;SDS011;18289;51.330;4.946;2023-12-28T10:04:17;15.98;;;3.10;;
31694;SDS011;18289;51.330;4.946;2023-12-28T10:06:46;21.88;;;3.47;;
31694;SDS011;18289;51.330;4.946;2023-12-28T10:09:25;11.70;;;3.60;;
31694;SDS011;18289;51.330;4.946;2023-12-28T10:12:09;15.85;;;3.03;;
31694;SDS011;18289;51.330;4.946;2023-12-28T10:17:12;13.90;;;3.60;;
31694;SDS011;18289;51.330;4.946;2023-12-28T10:19:37;30.00;;;4.82;;
31694;SDS011;18289;51.330;4.946;2023-12-28T10:22:09;14.23;;;2.80;;
31694;SDS011;18289;51.330;4.946;2023-12-28T10:24:34;14.70;;;3.13;;
31694;SDS011;18289;51.330;4.946;2023-12-28T10:27:08;11.68;;;3.10;;
31694;SDS011;18289;51.330;4.946;2023-12-28T10:29:33;13.70;;;3.25;;
31694;SDS011;18289;51.330;4.946;2023-12-28T10:32:02;11.75;;;2.55;;
31694;SDS011;18289;51.330;4.946;2023-12-28T10:34:28;9.07;;;3.00;;
31694;SDS011;18289;51.330;4.946;2023-12-28T10:36:53;11.90;;;2.95;;
31694;SDS011;18289;51.330;4.946;2023-12-28T10:39:23;8.57;;;2.67;;
31694;SDS011;18289;51.330;4.946;2023-12-28T10:41:51;10.88;;;3.15;;
31694;SDS011;18289;51.330;4.946;2023-12-28T10:44:21;17.15;;;3.20;;
31694;SDS011;18289;51.330;4.946;2023-12-28T10:46:57;12.80;;;3.10;;
31694;SDS011;18289;51.330;4.946;2023-12-28T10:49:30;14.18;;;3.72;;
31694;SDS011;18289;51.330;4.946;2023-12-28T10:51:58;9.15;;;2.78;;
31694;SDS011;18289;51.330;4.946;2023-12-28T10:57:09;10.40;;;2.67;;
31694;SDS011;18289;51.330;4.946;2023-12-28T11:02:26;10.25;;;3.20;;
31694;SDS011;18289;51.330;4.946;2023-12-28T11:04:58;16.02;;;3.65;;
31694;SDS011;18289;51.330;4.946;2023-12-28T11:07:28;13.30;;;3.38;;
31694;SDS011;18289;51.330;4.946;2023-12-28T11:09:58;7.90;;;2.95;;
31694;SDS011;18289;51.330;4.946;2023-12-28T11:12:29;11.68;;;3.92;;
31694;SDS011;18289;51.330;4.946;2023-12-28T11:15:00;14.80;;;3.55;;
31694;SDS011;18289;51.330;4.946;2023-12-28T11:17:28;16.50;;;3.25;;
31694;SDS011;18289;51.330;4.946;2023-12-28T11:19:56;12.20;;;3.20;;
31694;SDS011;18289;51.330;4.946;2023-12-28T11:22:23;11.38;;;4.03;;
31694;SDS011;18289;51.330;4.946;2023-12-28T11:24:53;12.05;;;3.60;;
31694;SDS011;18289;51.330;4.946;2023-12-28T11:27:19;19.08;;;3.38;;
31694;SDS011;18289;51.330;4.946;2023-12-28T11:29:47;11.10;;;3.05;;
31694;SDS011;18289;51.330;4.946;2023-12-28T11:32:17;13.52;;;3.13;;
31694;SDS011;18289;51.330;4.946;2023-12-28T11:34:58;15.98;;;3.00;;
31694;SDS011;18289;51.330;4.946;2023-12-28T11:37:32;12.77;;;3.85;;
31694;SDS011;18289;51.330;4.946;2023-12-28T11:40:10;9.32;;;2.85;;
31694;SDS011;18289;51.330;4.946;2023-12-28T11:42:36;11.70;;;2.88;;
31694;SDS011;18289;51.330;4.946;2023-12-28T11:45:20;14.63;;;4.00;;
31694;SDS011;18289;51.330;4.946;2023-12-28T11:47:47;15.00;;;2.70;;
31694;SDS011;18289;51.330;4.946;2023-12-28T11:50:29;10.00;;;2.60;;
31694;SDS011;18289;51.330;4.946;2023-12-28T11:52:55;9.75;;;3.10;;
31694;SDS011;18289;51.330;4.946;2023-12-28T11:55:21;13.95;;;3.13;;
31694;SDS011;18289;51.330;4.946;2023-12-28T11:57:48;10.63;;;2.70;;
31694;SDS011;18289;51.330;4.946;2023-12-28T12:00:17;12.15;;;3.25;;
31694;SDS011;18289;51.330;4.946;2023-12-28T12:02:51;11.93;;;2.88;;
31694;SDS011;18289;51.330;4.946;2023-12-28T12:05:20;13.23;;;4.15;;
31694;SDS011;18289;51.330;4.946;2023-12-28T12:07:48;12.45;;;3.20;;
31694;SDS011;18289;51.330;4.946;2023-12-28T12:10:14;11.57;;;3.33;;
31694;SDS011;18289;51.330;4.946;2023-12-28T12:12:41;10.65;;;3.10;;
31694;SDS011;18289;51.330;4.946;2023-12-28T12:15:07;12.25;;;4.22;;
31694;SDS011;18289;51.330;4.946;2023-12-28T12:17:34;15.85;;;3.17;;
31694;SDS011;18289;51.330;4.946;2023-12-28T12:19:59;10.50;;;2.83;;
31694;SDS011;18289;51.330;4.946;2023-12-28T12:22:27;13.48;;;3.42;;
31694;SDS011;18289;51.330;4.946;2023-12-28T12:24:53;17.40;;;3.28;;
31694;SDS011;18289;51.330;4.946;2023-12-28T12:27:21;10.05;;;2.58;;
31694;SDS011;18289;51.330;4.946;2023-12-28T12:29:49;10.85;;;2.72;;
31694;SDS011;18289;51.330;4.946;2023-12-28T12:32:14;8.98;;;3.20;;
31694;SDS011;18289;51.330;4.946;2023-12-28T12:34:40;13.57;;;3.83;;
31694;SDS011;18289;51.330;4.946;2023-12-28T12:37:06;13.32;;;3.72;;
31694;SDS011;18289;51.330;4.946;2023-12-28T12:39:32;12.77;;;3.95;;
31694;SDS011;18289;51.330;4.946;2023-12-28T12:41:58;11.82;;;4.03;;
31694;SDS011;18289;51.330;4.946;2023-12-28T12:44:30;15.90;;;3.03;;
31694;SDS011;18289;51.330;4.946;2023-12-28T12:46:56;11.77;;;3.78;;
31694;SDS011;18289;51.330;4.946;2023-12-28T12:49:23;11.80;;;3.25;;
31694;SDS011;18289;51.330;4.946;2023-12-28T12:51:50;14.45;;;3.58;;
31694;SDS011;18289;51.330;4.946;2023-12-28T12:54:19;15.43;;;3.13;;
31694;SDS011;18289;51.330;4.946;2023-12-28T12:56:45;10.73;;;3.10;;
31694;SDS011;18289;51.330;4.946;2023-12-28T12:59:11;8.93;;;2.90;;
31694;SDS011;18289;51.330;4.946;2023-12-28T13:01:50;12.15;;;3.33;;
31694;SDS011;18289;51.330;4.946;2023-12-28T13:04:22;20.13;;;4.05;;
31694;SDS011;18289;51.330;4.946;2023-12-28T13:06:51;12.02;;;4.45;;
31694;SDS011;18289;51.330;4.946;2023-12-28T13:09:27;12.68;;;3.30;;
31694;SDS011;18289;51.330;4.946;2023-12-28T13:11:55;10.32;;;3.30;;
31694;SDS011;18289;51.330;4.946;2023-12-28T13:14:27;9.87;;;3.40;;
31694;SDS011;18289;51.330;4.946;2023-12-28T13:16:54;12.95;;;3.58;;
31694;SDS011;18289;51.330;4.946;2023-12-28T13:19:22;9.52;;;2.70;;
31694;SDS011;18289;51.330;4.946;2023-12-28T13:21:48;14.77;;;2.85;;
31694;SDS011;18289;51.330;4.946;2023-12-28T13:24:14;9.65;;;2.80;;
31694;SDS011;18289;51.330;4.946;2023-12-28T13:26:42;10.93;;;3.08;;
31694;SDS011;18289;51.330;4.946;2023-12-28T13:29:08;7.60;;;3.00;;
31694;SDS011;18289;51.330;4.946;2023-12-28T13:31:39;11.15;;;3.13;;
31694;SDS011;18289;51.330;4.946;2023-12-28T13:34:07;7.78;;;2.58;;
31694;SDS011;18289;51.330;4.946;2023-12-28T13:36:33;11.13;;;3.45;;
31694;SDS011;18289;51.330;4.946;2023-12-28T13:38:59;8.88;;;3.33;;
31694;SDS011;18289;51.330;4.946;2023-12-28T13:41:25;12.05;;;3.35;;
31694;SDS011;18289;51.330;4.946;2023-12-28T13:43:53;10.85;;;3.25;;
31694;SDS011;18289;51.330;4.946;2023-12-28T13:46:25;8.45;;;2.80;;
31694;SDS011;18289;51.330;4.946;2023-12-28T13:48:51;14.70;;;3.25;;
31694;SDS011;18289;51.330;4.946;2023-12-28T13:51:16;9.95;;;3.03;;
31694;SDS011;18289;51.330;4.946;2023-12-28T13:53:45;11.48;;;3.42;;
31694;SDS011;18289;51.330;4.946;2023-12-28T13:56:27;10.50;;;3.00;;
31694;SDS011;18289;51.330;4.946;2023-12-28T13:58:56;16.35;;;3.13;;
31694;SDS011;18289;51.330;4.946;2023-12-28T14:01:24;16.33;;;3.35;;
31694;SDS011;18289;51.330;4.946;2023-12-28T14:03:50;8.77;;;2.58;;
31694;SDS011;18289;51.330;4.946;2023-12-28T14:06:16;12.07;;;3.28;;
31694;SDS011;18289;51.330;4.946;2023-12-28T14:08:43;13.93;;;3.50;;
31694;SDS011;18289;51.330;4.946;2023-12-28T14:11:11;12.45;;;3.90;;
31694;SDS011;18289;51.330;4.946;2023-12-28T14:13:40;9.45;;;2.75;;
31694;SDS011;18289;51.330;4.946;2023-12-28T14:16:08;10.13;;;3.05;;
31694;SDS011;18289;51.330;4.946;2023-12-28T14:18:34;13.70;;;2.85;;
31694;SDS011;18289;51.330;4.946;2023-12-28T14:21:00;21.85;;;3.85;;
31694;SDS011;18289;51.330;4.946;2023-12-28T14:23:26;11.20;;;2.75;;
31694;SDS011;18289;51.330;4.946;2023-12-28T14:25:55;9.38;;;2.65;;
31694;SDS011;18289;51.330;4.946;2023-12-28T14:28:23;16.80;;;4.32;;
31694;SDS011;18289;51.330;4.946;2023-12-28T14:30:51;11.75;;;2.75;;
31694;SDS011;18289;51.330;4.946;2023-12-28T14:33:18;15.25;;;4.05;;
31694;SDS011;18289;51.330;4.946;2023-12-28T14:35:44;11.65;;;3.15;;
31694;SDS011;18289;51.330;4.946;2023-12-28T14:38:10;14.50;;;3.28;;
31694;SDS011;18289;51.330;4.946;2023-12-28T14:40:35;14.30;;;3.05;;
31694;SDS011;18289;51.330;4.946;2023-12-28T14:43:01;11.20;;;3.63;;
31694;SDS011;18289;51.330;4.946;2023-12-28T14:45:27;12.20;;;3.30;;
31694;SDS011;18289;51.330;4.946;2023-12-28T14:47:59;12.88;;;3.40;;
31694;SDS011;18289;51.330;4.946;2023-12-28T14:50:24;10.93;;;2.80;;
31694;SDS011;18289;51.330;4.946;2023-12-28T14:52:50;11.65;;;3.30;;
31694;SDS011;18289;51.330;4.946;2023-12-28T14:55:19;10.40;;;3.47;;
31694;SDS011;18289;51.330;4.946;2023-12-28T14:57:46;12.10;;;3.63;;
31694;SDS011;18289;51.330;4.946;2023-12-28T15:00:12;9.32;;;3.10;;
31694;SDS011;18289;51.330;4.946;2023-12-28T15:02:38;12.70;;;2.95;;